• Join FlightAware (Why Join?)
  • Login
  • US Flag 
04:01PM EDT


 

Airport Tracker/Info


-or-


 

Live Flight TrackerFlight Track Log ✈ ASQ5102 ✈ 22-Aug-2013 ✈ KATL - KMGM

Flight Track Log - Related Links

Times and Time Zones

All times are in EDT time to prevent confusion due to time zone crossing. See the ASQ5102 flight status page for this flight to view local times or setup timezone preferences in your user account.

Time Position Orientation Groundspeed Altitude Reporting Facility
EDT Latitude Longitude Course Direction KTS MPH feet Rate Location/Type
02:09PM 33.6333 -84.4667 253° West 165 190 2,200  Level Atlanta TRACON
02:10PM 33.6167 -84.5333 253° West 232 267 3,700 1,860 Climbing Atlanta TRACON
02:11PM 33.5833 -84.6000 239° Southwest 274 315 5,800 2,400 Climbing Atlanta TRACON
02:12PM 33.5167 -84.6000 180° South 283 326 8,300 2,100 Climbing Atlanta TRACON
02:13PM 33.4333 -84.6000 180° South 296 341 10,000 840 Climbing Atlanta TRACON
02:14PM 33.3500 -84.6500 207° Southwest 320 368 10,000  Level Atlanta TRACON
02:15PM 33.2833 -84.6833 203° Southwest 312 359 10,000  Level Atlanta TRACON
02:16PM 33.1833 -84.7333 203° Southwest 312 359 10,000  Level Atlanta TRACON
02:17PM 33.1000 -84.7667 199° South 319 367 10,000  Level Atlanta TRACON
02:18PM 33.0333 -84.8167 212° Southwest 325 374 10,000  Level Atlanta TRACON
02:19PM 32.9500 -84.8833 214° Southwest 333 383 10,000  Level Atlanta TRACON
02:20PM 32.9167 -84.9667 245° Southwest 321 369 10,000  Level Atlanta TRACON
02:21PM 32.8833 -85.0500 245° Southwest 302 348 10,000  Level Atlanta TRACON
02:22PM 32.8333 -85.1500 239° Southwest 312 359 10,000  Level Atlanta TRACON
02:23PM 32.8000 -85.2333 245° Southwest 322 371 10,000  Level Atlanta TRACON
02:24PM 32.7500 -85.3333 239° Southwest 327 376 10,000  Level Atlanta TRACON
02:25PM 32.7167 -85.4167 245° Southwest 323 372 10,000  Level Atlanta TRACON
02:26PM 32.6833 -85.5167 248° West 328 377 10,000  Level Atlanta TRACON
02:27PM 32.6333 -85.6167 239° Southwest 332 382 10,000  Level Atlanta TRACON
02:29PM 32.5654 -85.7253 233° Southwest  Level FlightAware Approximate
02:36PM 32.3093 -86.3368 257° West  Level FlightAware Approximate
02:37PM 32.3000 -86.3833 257° West  Level FlightAware Approximate
02:38PM 32.3006 -86.3940 257° West  Level Estimated
02:39PM 32.3006 -86.3940 257° West  Level Estimated
02:40PM 32.3006 -86.3940 257° West  Level Estimated
02:41PM 32.3006 -86.3940 257° West  Level Estimated
02:42PM 32.3006 -86.3940 257° West  Level Estimated
02:43PM 32.3006 -86.3940 257° West  Level Estimated
02:44PM 32.3006 -86.3940 257° West  Level Estimated
02:45PM 32.3006 -86.3940 257° West  Level Estimated
02:46PM 32.3006 -86.3940 257° West  Level Estimated